sensor_id;sensor_type;location;lat;lon;timestamp;temperature;humidity
5172;DHT22;2605;49.770;9.868;2022-07-29T00:00:20;19.40;99.90
5172;DHT22;2605;49.770;9.868;2022-07-29T00:02:45;19.40;99.90
5172;DHT22;2605;49.770;9.868;2022-07-29T00:05:11;19.30;99.90
5172;DHT22;2605;49.770;9.868;2022-07-29T00:07:39;19.30;99.90
5172;DHT22;2605;49.770;9.868;2022-07-29T00:10:04;19.30;99.90
5172;DHT22;2605;49.770;9.868;2022-07-29T00:12:30;19.20;99.90
5172;DHT22;2605;49.770;9.868;2022-07-29T00:14:57;19.20;99.90
5172;DHT22;2605;49.770;9.868;2022-07-29T00:17:23;19.10;99.90
5172;DHT22;2605;49.770;9.868;2022-07-29T00:19:49;19.10;99.90
5172;DHT22;2605;49.770;9.868;2022-07-29T00:22:14;19.10;99.90
5172;DHT22;2605;49.770;9.868;2022-07-29T00:24:40;19.10;99.90
5172;DHT22;2605;49.770;9.868;2022-07-29T00:27:06;19.10;99.90
5172;DHT22;2605;49.770;9.868;2022-07-29T00:29:31;19.00;99.90
5172;DHT22;2605;49.770;9.868;2022-07-29T00:31:57;19.00;99.90
5172;DHT22;2605;49.770;9.868;2022-07-29T00:34:22;19.00;99.90
5172;DHT22;2605;49.770;9.868;2022-07-29T00:37:06;19.00;99.90
5172;DHT22;2605;49.770;9.868;2022-07-29T00:39:32;19.00;99.90
5172;DHT22;2605;49.770;9.868;2022-07-29T00:41:57;19.00;99.90
5172;DHT22;2605;49.770;9.868;2022-07-29T00:44:23;19.00;99.90
5172;DHT22;2605;49.770;9.868;2022-07-29T00:46:48;19.00;99.90
5172;DHT22;2605;49.770;9.868;2022-07-29T00:49:13;19.00;99.90
5172;DHT22;2605;49.770;9.868;2022-07-29T00:51:39;18.90;99.90
5172;DHT22;2605;49.770;9.868;2022-07-29T00:54:05;18.90;99.90
5172;DHT22;2605;49.770;9.868;2022-07-29T00:56:32;18.90;99.90
5172;DHT22;2605;49.770;9.868;2022-07-29T00:58:58;18.90;99.90
5172;DHT22;2605;49.770;9.868;2022-07-29T01:01:24;18.80;99.90
5172;DHT22;2605;49.770;9.868;2022-07-29T01:03:50;18.80;99.90
5172;DHT22;2605;49.770;9.868;2022-07-29T01:06:18;18.80;99.90
5172;DHT22;2605;49.770;9.868;2022-07-29T01:08:45;18.80;99.90
5172;DHT22;2605;49.770;9.868;2022-07-29T01:11:13;18.80;99.90
5172;DHT22;2605;49.770;9.868;2022-07-29T01:13:39;18.80;99.90
5172;DHT22;2605;49.770;9.868;2022-07-29T01:16:14;18.70;99.90
5172;DHT22;2605;49.770;9.868;2022-07-29T01:18:44;18.80;99.90
5172;DHT22;2605;49.770;9.868;2022-07-29T01:21:40;18.70;99.90
5172;DHT22;2605;49.770;9.868;2022-07-29T01:30:09;18.70;99.90
5172;DHT22;2605;49.770;9.868;2022-07-29T01:32:37;18.70;99.90
5172;DHT22;2605;49.770;9.868;2022-07-29T01:35:06;18.60;99.90
5172;DHT22;2605;49.770;9.868;2022-07-29T01:37:45;18.60;99.90
5172;DHT22;2605;49.770;9.868;2022-07-29T01:40:29;18.60;99.90
5172;DHT22;2605;49.770;9.868;2022-07-29T01:42:57;18.60;99.90
5172;DHT22;2605;49.770;9.868;2022-07-29T01:45:43;18.60;99.90
5172;DHT22;2605;49.770;9.868;2022-07-29T01:48:21;18.60;99.90
5172;DHT22;2605;49.770;9.868;2022-07-29T01:50:53;18.50;99.90
5172;DHT22;2605;49.770;9.868;2022-07-29T01:53:55;18.50;99.90
5172;DHT22;2605;49.770;9.868;2022-07-29T01:56:13;18.50;99.90
5172;DHT22;2605;49.770;9.868;2022-07-29T01:58:41;18.50;99.90
5172;DHT22;2605;49.770;9.868;2022-07-29T02:01:09;18.40;99.90
5172;DHT22;2605;49.770;9.868;2022-07-29T02:03:38;18.50;99.90
5172;DHT22;2605;49.770;9.868;2022-07-29T02:06:05;18.40;99.90
5172;DHT22;2605;49.770;9.868;2022-07-29T02:08:32;18.40;99.90
5172;DHT22;2605;49.770;9.868;2022-07-29T02:11:00;18.40;99.90
5172;DHT22;2605;49.770;9.868;2022-07-29T02:13:27;18.40;99.90
5172;DHT22;2605;49.770;9.868;2022-07-29T02:15:55;18.40;99.90
5172;DHT22;2605;49.770;9.868;2022-07-29T02:18:22;18.30;99.90
5172;DHT22;2605;49.770;9.868;2022-07-29T02:20:50;18.30;99.90
5172;DHT22;2605;49.770;9.868;2022-07-29T02:23:23;18.30;99.90
5172;DHT22;2605;49.770;9.868;2022-07-29T02:25:51;18.30;99.90
5172;DHT22;2605;49.770;9.868;2022-07-29T02:28:19;18.20;99.90
5172;DHT22;2605;49.770;9.868;2022-07-29T02:30:45;18.20;99.90
5172;DHT22;2605;49.770;9.868;2022-07-29T02:33:14;18.20;99.90
5172;DHT22;2605;49.770;9.868;2022-07-29T02:35:41;18.20;99.90
5172;DHT22;2605;49.770;9.868;2022-07-29T02:38:12;18.10;99.90
5172;DHT22;2605;49.770;9.868;2022-07-29T02:40:56;18.10;99.90
5172;DHT22;2605;49.770;9.868;2022-07-29T02:43:23;18.00;99.90
5172;DHT22;2605;49.770;9.868;2022-07-29T02:45:51;18.00;99.90
5172;DHT22;2605;49.770;9.868;2022-07-29T02:48:19;17.90;99.90
5172;DHT22;2605;49.770;9.868;2022-07-29T02:50:51;17.90;99.90
5172;DHT22;2605;49.770;9.868;2022-07-29T02:53:22;17.90;99.90
5172;DHT22;2605;49.770;9.868;2022-07-29T02:55:56;17.90;99.90
5172;DHT22;2605;49.770;9.868;2022-07-29T02:58:28;17.80;99.90
5172;DHT22;2605;49.770;9.868;2022-07-29T03:00:59;17.80;99.90
5172;DHT22;2605;49.770;9.868;2022-07-29T03:03:35;17.70;99.90
5172;DHT22;2605;49.770;9.868;2022-07-29T03:06:02;17.70;99.90
5172;DHT22;2605;49.770;9.868;2022-07-29T03:08:29;17.70;99.90
5172;DHT22;2605;49.770;9.868;2022-07-29T03:10:56;17.70;99.90
5172;DHT22;2605;49.770;9.868;2022-07-29T03:13:22;17.70;99.90
5172;DHT22;2605;49.770;9.868;2022-07-29T03:15:49;17.70;99.90
5172;DHT22;2605;49.770;9.868;2022-07-29T03:18:15;17.70;99.90
5172;DHT22;2605;49.770;9.868;2022-07-29T03:20:40;17.70;99.90
5172;DHT22;2605;49.770;9.868;2022-07-29T03:23:08;17.60;99.90
5172;DHT22;2605;49.770;9.868;2022-07-29T03:25:33;17.60;99.90
5172;DHT22;2605;49.770;9.868;2022-07-29T03:27:59;17.60;99.90
5172;DHT22;2605;49.770;9.868;2022-07-29T03:30:25;17.60;99.90
5172;DHT22;2605;49.770;9.868;2022-07-29T03:32:52;17.60;99.90
5172;DHT22;2605;49.770;9.868;2022-07-29T03:35:18;17.60;99.90
5172;DHT22;2605;49.770;9.868;2022-07-29T03:37:44;17.60;99.90
5172;DHT22;2605;49.770;9.868;2022-07-29T03:40:13;17.60;99.90
5172;DHT22;2605;49.770;9.868;2022-07-29T03:42:40;17.70;99.90
5172;DHT22;2605;49.770;9.868;2022-07-29T03:45:10;17.70;99.90
5172;DHT22;2605;49.770;9.868;2022-07-29T03:47:40;17.70;99.90
5172;DHT22;2605;49.770;9.868;2022-07-29T03:50:09;17.70;99.90
5172;DHT22;2605;49.770;9.868;2022-07-29T03:52:35;17.80;99.90
5172;DHT22;2605;49.770;9.868;2022-07-29T03:55:02;17.80;99.90
5172;DHT22;2605;49.770;9.868;2022-07-29T03:57:28;17.70;99.90
5172;DHT22;2605;49.770;9.868;2022-07-29T03:59:55;17.80;99.90
5172;DHT22;2605;49.770;9.868;2022-07-29T04:02:22;17.80;99.90
5172;DHT22;2605;49.770;9.868;2022-07-29T04:04:48;17.80;99.90
5172;DHT22;2605;49.770;9.868;2022-07-29T04:07:14;17.80;99.90
5172;DHT22;2605;49.770;9.868;2022-07-29T04:09:40;17.80;99.90
5172;DHT22;2605;49.770;9.868;2022-07-29T04:12:06;17.80;99.90
5172;DHT22;2605;49.770;9.868;2022-07-29T04:14:32;17.80;99.90
5172;DHT22;2605;49.770;9.868;2022-07-29T04:16:59;17.80;99.90
5172;DHT22;2605;49.770;9.868;2022-07-29T04:19:24;17.80;99.90
5172;DHT22;2605;49.770;9.868;2022-07-29T04:21:50;17.80;99.90
5172;DHT22;2605;49.770;9.868;2022-07-29T04:24:16;17.90;99.90
5172;DHT22;2605;49.770;9.868;2022-07-29T04:26:42;17.90;99.90
5172;DHT22;2605;49.770;9.868;2022-07-29T04:29:07;17.90;99.90
5172;DHT22;2605;49.770;9.868;2022-07-29T04:31:33;17.90;99.90
5172;DHT22;2605;49.770;9.868;2022-07-29T04:33:58;17.90;99.90
5172;DHT22;2605;49.770;9.868;2022-07-29T04:36:24;17.90;99.90
5172;DHT22;2605;49.770;9.868;2022-07-29T04:38:49;17.90;99.90
5172;DHT22;2605;49.770;9.868;2022-07-29T04:41:15;17.90;99.90
5172;DHT22;2605;49.770;9.868;2022-07-29T04:43:40;17.90;99.90
5172;DHT22;2605;49.770;9.868;2022-07-29T04:46:06;17.90;99.90
5172;DHT22;2605;49.770;9.868;2022-07-29T04:48:32;17.90;99.90
5172;DHT22;2605;49.770;9.868;2022-07-29T04:50:58;17.90;99.90
5172;DHT22;2605;49.770;9.868;2022-07-29T04:53:24;17.90;99.90
5172;DHT22;2605;49.770;9.868;2022-07-29T04:55:50;17.90;99.90
5172;DHT22;2605;49.770;9.868;2022-07-29T04:58:15;18.00;99.90
5172;DHT22;2605;49.770;9.868;2022-07-29T05:00:41;17.90;99.90
5172;DHT22;2605;49.770;9.868;2022-07-29T05:03:06;18.00;99.90
5172;DHT22;2605;49.770;9.868;2022-07-29T05:05:32;18.10;99.90
5172;DHT22;2605;49.770;9.868;2022-07-29T05:07:58;18.10;99.90
5172;DHT22;2605;49.770;9.868;2022-07-29T05:10:23;18.20;99.90
5172;DHT22;2605;49.770;9.868;2022-07-29T05:12:49;18.20;99.90
5172;DHT22;2605;49.770;9.868;2022-07-29T05:15:15;18.30;99.90
5172;DHT22;2605;49.770;9.868;2022-07-29T05:17:40;18.40;99.90
5172;DHT22;2605;49.770;9.868;2022-07-29T05:20:06;18.40;99.90
5172;DHT22;2605;49.770;9.868;2022-07-29T05:22:32;18.50;99.90
5172;DHT22;2605;49.770;9.868;2022-07-29T05:24:58;18.60;99.90
5172;DHT22;2605;49.770;9.868;2022-07-29T05:27:23;18.60;99.90
5172;DHT22;2605;49.770;9.868;2022-07-29T05:29:49;18.80;99.90
5172;DHT22;2605;49.770;9.868;2022-07-29T05:32:14;18.90;99.90
5172;DHT22;2605;49.770;9.868;2022-07-29T05:34:40;19.10;99.90
5172;DHT22;2605;49.770;9.868;2022-07-29T05:37:06;19.20;99.90
5172;DHT22;2605;49.770;9.868;2022-07-29T05:39:31;19.30;99.90
5172;DHT22;2605;49.770;9.868;2022-07-29T05:41:57;19.50;99.90
5172;DHT22;2605;49.770;9.868;2022-07-29T05:44:22;19.60;99.90
5172;DHT22;2605;49.770;9.868;2022-07-29T05:46:48;19.70;99.90
5172;DHT22;2605;49.770;9.868;2022-07-29T05:49:13;19.80;99.90
5172;DHT22;2605;49.770;9.868;2022-07-29T05:51:39;20.00;99.90
5172;DHT22;2605;49.770;9.868;2022-07-29T05:54:05;20.10;99.90
5172;DHT22;2605;49.770;9.868;2022-07-29T05:56:30;20.20;99.90
5172;DHT22;2605;49.770;9.868;2022-07-29T05:58:56;20.30;99.90
5172;DHT22;2605;49.770;9.868;2022-07-29T06:01:21;20.40;99.90
5172;DHT22;2605;49.770;9.868;2022-07-29T06:03:47;20.60;99.90
5172;DHT22;2605;49.770;9.868;2022-07-29T06:06:12;20.70;99.90
5172;DHT22;2605;49.770;9.868;2022-07-29T06:08:38;20.70;99.90
5172;DHT22;2605;49.770;9.868;2022-07-29T06:11:05;20.80;99.90
5172;DHT22;2605;49.770;9.868;2022-07-29T06:13:31;20.90;99.90
5172;DHT22;2605;49.770;9.868;2022-07-29T06:15:57;20.90;99.90
5172;DHT22;2605;49.770;9.868;2022-07-29T06:18:22;21.00;99.90
5172;DHT22;2605;49.770;9.868;2022-07-29T06:20:53;21.10;99.90
5172;DHT22;2605;49.770;9.868;2022-07-29T06:23:19;21.20;99.90
5172;DHT22;2605;49.770;9.868;2022-07-29T06:25:45;21.30;99.90
5172;DHT22;2605;49.770;9.868;2022-07-29T06:28:11;21.50;99.90
5172;DHT22;2605;49.770;9.868;2022-07-29T06:30:37;21.60;99.90
5172;DHT22;2605;49.770;9.868;2022-07-29T06:33:02;21.80;99.90
5172;DHT22;2605;49.770;9.868;2022-07-29T06:35:28;21.80;99.90
5172;DHT22;2605;49.770;9.868;2022-07-29T06:37:53;22.00;99.90
5172;DHT22;2605;49.770;9.868;2022-07-29T06:40:20;22.10;99.90
5172;DHT22;2605;49.770;9.868;2022-07-29T06:43:04;22.30;99.90
5172;DHT22;2605;49.770;9.868;2022-07-29T06:45:29;22.60;99.90
5172;DHT22;2605;49.770;9.868;2022-07-29T06:47:55;22.80;99.90
5172;DHT22;2605;49.770;9.868;2022-07-29T06:50:20;23.10;99.90
5172;DHT22;2605;49.770;9.868;2022-07-29T06:52:47;23.30;99.90
5172;DHT22;2605;49.770;9.868;2022-07-29T06:55:13;23.50;99.90
5172;DHT22;2605;49.770;9.868;2022-07-29T06:57:39;23.60;99.90
5172;DHT22;2605;49.770;9.868;2022-07-29T07:00:05;23.80;99.90
5172;DHT22;2605;49.770;9.868;2022-07-29T07:02:31;24.20;99.90
5172;DHT22;2605;49.770;9.868;2022-07-29T07:04:57;24.50;99.90
5172;DHT22;2605;49.770;9.868;2022-07-29T07:07:24;24.90;99.90
5172;DHT22;2605;49.770;9.868;2022-07-29T07:09:49;25.30;99.90
5172;DHT22;2605;49.770;9.868;2022-07-29T07:12:14;25.50;99.90
5172;DHT22;2605;49.770;9.868;2022-07-29T07:14:40;25.90;99.90
5172;DHT22;2605;49.770;9.868;2022-07-29T07:17:06;26.00;99.90
5172;DHT22;2605;49.770;9.868;2022-07-29T07:19:32;26.20;99.90
5172;DHT22;2605;49.770;9.868;2022-07-29T07:21:57;26.60;99.90
5172;DHT22;2605;49.770;9.868;2022-07-29T07:24:23;26.90;99.90
5172;DHT22;2605;49.770;9.868;2022-07-29T07:26:48;27.20;98.90
5172;DHT22;2605;49.770;9.868;2022-07-29T07:29:14;27.30;98.40
5172;DHT22;2605;49.770;9.868;2022-07-29T07:31:39;27.10;98.40
5172;DHT22;2605;49.770;9.868;2022-07-29T07:34:05;27.20;98.20
5172;DHT22;2605;49.770;9.868;2022-07-29T07:36:31;27.40;97.80
5172;DHT22;2605;49.770;9.868;2022-07-29T07:38:56;27.50;97.80
5172;DHT22;2605;49.770;9.868;2022-07-29T07:41:22;27.80;97.50
5172;DHT22;2605;49.770;9.868;2022-07-29T07:43:48;28.10;96.00
5172;DHT22;2605;49.770;9.868;2022-07-29T07:46:13;28.10;95.90
5172;DHT22;2605;49.770;9.868;2022-07-29T07:48:39;27.70;96.70
5172;DHT22;2605;49.770;9.868;2022-07-29T07:51:05;27.70;97.00
5172;DHT22;2605;49.770;9.868;2022-07-29T07:53:30;27.70;96.90
5172;DHT22;2605;49.770;9.868;2022-07-29T07:55:56;27.80;96.80
5172;DHT22;2605;49.770;9.868;2022-07-29T07:58:21;27.70;97.20
5172;DHT22;2605;49.770;9.868;2022-07-29T08:00:47;27.90;97.00
5172;DHT22;2605;49.770;9.868;2022-07-29T08:03:13;28.20;96.40
5172;DHT22;2605;49.770;9.868;2022-07-29T08:05:39;28.40;95.80
5172;DHT22;2605;49.770;9.868;2022-07-29T08:08:05;28.50;95.50
5172;DHT22;2605;49.770;9.868;2022-07-29T08:10:30;28.60;95.00
5172;DHT22;2605;49.770;9.868;2022-07-29T08:13:15;28.80;94.80
5172;DHT22;2605;49.770;9.868;2022-07-29T08:15:41;28.90;94.10
5172;DHT22;2605;49.770;9.868;2022-07-29T08:18:08;29.10;93.60
5172;DHT22;2605;49.770;9.868;2022-07-29T08:20:33;29.30;93.50
5172;DHT22;2605;49.770;9.868;2022-07-29T08:23:01;29.40;92.80
5172;DHT22;2605;49.770;9.868;2022-07-29T08:25:27;29.50;93.20
5172;DHT22;2605;49.770;9.868;2022-07-29T08:27:52;29.70;92.30
5172;DHT22;2605;49.770;9.868;2022-07-29T08:30:18;29.90;91.70
5172;DHT22;2605;49.770;9.868;2022-07-29T08:32:43;29.90;91.60
5172;DHT22;2605;49.770;9.868;2022-07-29T08:35:09;29.70;92.00
5172;DHT22;2605;49.770;9.868;2022-07-29T08:37:34;29.70;92.20
5172;DHT22;2605;49.770;9.868;2022-07-29T08:40:00;29.70;92.30
5172;DHT22;2605;49.770;9.868;2022-07-29T08:42:25;29.70;92.50
5172;DHT22;2605;49.770;9.868;2022-07-29T08:44:51;29.70;92.60
5172;DHT22;2605;49.770;9.868;2022-07-29T08:47:18;29.80;92.40
5172;DHT22;2605;49.770;9.868;2022-07-29T08:49:44;29.90;92.30
5172;DHT22;2605;49.770;9.868;2022-07-29T08:52:12;29.10;93.00
5172;DHT22;2605;49.770;9.868;2022-07-29T08:54:39;29.30;93.60
5172;DHT22;2605;49.770;9.868;2022-07-29T08:57:08;29.20;93.70
5172;DHT22;2605;49.770;9.868;2022-07-29T08:59:34;29.00;94.10
5172;DHT22;2605;49.770;9.868;2022-07-29T09:02:00;28.90;94.70
5172;DHT22;2605;49.770;9.868;2022-07-29T09:04:34;28.80;95.10
5172;DHT22;2605;49.770;9.868;2022-07-29T09:07:04;28.80;95.30
5172;DHT22;2605;49.770;9.868;2022-07-29T09:09:30;28.70;95.80
5172;DHT22;2605;49.770;9.868;2022-07-29T09:11:58;28.90;95.70
5172;DHT22;2605;49.770;9.868;2022-07-29T09:14:24;29.00;95.30
5172;DHT22;2605;49.770;9.868;2022-07-29T09:16:54;29.00;95.40
5172;DHT22;2605;49.770;9.868;2022-07-29T09:19:27;29.00;95.40
5172;DHT22;2605;49.770;9.868;2022-07-29T09:21:54;29.00;95.10
5172;DHT22;2605;49.770;9.868;2022-07-29T09:24:23;28.40;96.60
5172;DHT22;2605;49.770;9.868;2022-07-29T09:26:48;28.40;96.90
5172;DHT22;2605;49.770;9.868;2022-07-29T09:29:22;28.10;97.70
5172;DHT22;2605;49.770;9.868;2022-07-29T09:31:50;27.90;98.60
5172;DHT22;2605;49.770;9.868;2022-07-29T09:34:20;27.50;99.90
5172;DHT22;2605;49.770;9.868;2022-07-29T09:36:48;27.10;99.90
5172;DHT22;2605;49.770;9.868;2022-07-29T09:39:15;27.20;99.90
5172;DHT22;2605;49.770;9.868;2022-07-29T09:42:01;26.50;99.90
5172;DHT22;2605;49.770;9.868;2022-07-29T09:44:46;26.20;99.90
5172;DHT22;2605;49.770;9.868;2022-07-29T09:47:14;26.00;99.90
5172;DHT22;2605;49.770;9.868;2022-07-29T09:49:59;25.70;99.90
5172;DHT22;2605;49.770;9.868;2022-07-29T09:52:29;25.40;99.90
5172;DHT22;2605;49.770;9.868;2022-07-29T09:55:08;25.40;99.90
5172;DHT22;2605;49.770;9.868;2022-07-29T09:57:34;25.00;99.90
5172;DHT22;2605;49.770;9.868;2022-07-29T10:00:20;24.60;99.90
5172;DHT22;2605;49.770;9.868;2022-07-29T10:02:48;24.00;99.90
5172;DHT22;2605;49.770;9.868;2022-07-29T10:05:27;24.00;99.90
5172;DHT22;2605;49.770;9.868;2022-07-29T10:07:56;23.70;99.90
5172;DHT22;2605;49.770;9.868;2022-07-29T10:10:27;23.70;99.90
5172;DHT22;2605;49.770;9.868;2022-07-29T10:13:01;23.60;99.90
5172;DHT22;2605;49.770;9.868;2022-07-29T10:15:28;23.50;99.90
5172;DHT22;2605;49.770;9.868;2022-07-29T10:17:56;23.30;99.90
5172;DHT22;2605;49.770;9.868;2022-07-29T10:20:22;23.10;99.90
5172;DHT22;2605;49.770;9.868;2022-07-29T10:22:48;23.00;99.90
5172;DHT22;2605;49.770;9.868;2022-07-29T10:25:15;23.00;99.90
5172;DHT22;2605;49.770;9.868;2022-07-29T10:27:41;22.90;99.90
5172;DHT22;2605;49.770;9.868;2022-07-29T10:30:08;23.00;99.90
5172;DHT22;2605;49.770;9.868;2022-07-29T10:33:08;23.00;99.90
5172;DHT22;2605;49.770;9.868;2022-07-29T10:35:54;23.00;99.90
5172;DHT22;2605;49.770;9.868;2022-07-29T10:44:09;23.50;99.90
5172;DHT22;2605;49.770;9.868;2022-07-29T10:46:39;23.90;99.90
5172;DHT22;2605;49.770;9.868;2022-07-29T10:54:19;24.40;99.90
5172;DHT22;2605;49.770;9.868;2022-07-29T10:56:45;24.70;99.90
5172;DHT22;2605;49.770;9.868;2022-07-29T11:01:45;25.20;99.90
5172;DHT22;2605;49.770;9.868;2022-07-29T11:04:11;25.40;99.90
5172;DHT22;2605;49.770;9.868;2022-07-29T11:09:27;26.00;99.90
5172;DHT22;2605;49.770;9.868;2022-07-29T11:11:55;26.30;99.90
5172;DHT22;2605;49.770;9.868;2022-07-29T11:17:21;26.40;99.90
5172;DHT22;2605;49.770;9.868;2022-07-29T11:19:47;26.50;99.90
5172;DHT22;2605;49.770;9.868;2022-07-29T11:22:32;26.80;99.90
5172;DHT22;2605;49.770;9.868;2022-07-29T11:25:13;27.00;99.90
5172;DHT22;2605;49.770;9.868;2022-07-29T11:27:39;27.30;99.90
5172;DHT22;2605;49.770;9.868;2022-07-29T11:30:05;27.60;99.90
5172;DHT22;2605;49.770;9.868;2022-07-29T11:32:39;27.70;99.90
5172;DHT22;2605;49.770;9.868;2022-07-29T11:35:20;27.90;99.90
5172;DHT22;2605;49.770;9.868;2022-07-29T11:41:19;28.40;99.90
5172;DHT22;2605;49.770;9.868;2022-07-29T11:43:54;28.50;99.90
5172;DHT22;2605;49.770;9.868;2022-07-29T11:46:46;29.20;99.90
5172;DHT22;2605;49.770;9.868;2022-07-29T11:49:12;29.60;99.90
5172;DHT22;2605;49.770;9.868;2022-07-29T11:51:39;29.20;99.90
5172;DHT22;2605;49.770;9.868;2022-07-29T11:54:05;28.90;99.90
5172;DHT22;2605;49.770;9.868;2022-07-29T11:56:34;29.10;99.90
5172;DHT22;2605;49.770;9.868;2022-07-29T11:59:04;29.40;99.90
5172;DHT22;2605;49.770;9.868;2022-07-29T12:01:30;29.40;99.90
5172;DHT22;2605;49.770;9.868;2022-07-29T12:04:04;29.10;99.90
5172;DHT22;2605;49.770;9.868;2022-07-29T12:06:31;29.00;99.90
5172;DHT22;2605;49.770;9.868;2022-07-29T12:08:56;29.00;99.90
5172;DHT22;2605;49.770;9.868;2022-07-29T12:11:22;28.80;99.90
5172;DHT22;2605;49.770;9.868;2022-07-29T12:13:49;28.80;99.90
5172;DHT22;2605;49.770;9.868;2022-07-29T12:16:14;28.70;99.90
5172;DHT22;2605;49.770;9.868;2022-07-29T12:18:40;28.90;99.90
5172;DHT22;2605;49.770;9.868;2022-07-29T12:21:05;29.20;99.90
5172;DHT22;2605;49.770;9.868;2022-07-29T12:23:32;30.00;99.90
5172;DHT22;2605;49.770;9.868;2022-07-29T12:25:58;29.70;99.90
5172;DHT22;2605;49.770;9.868;2022-07-29T12:28:24;29.20;99.90
5172;DHT22;2605;49.770;9.868;2022-07-29T12:30:50;28.90;99.90
5172;DHT22;2605;49.770;9.868;2022-07-29T12:33:27;28.90;99.90
5172;DHT22;2605;49.770;9.868;2022-07-29T12:35:54;28.70;99.90
5172;DHT22;2605;49.770;9.868;2022-07-29T12:38:21;28.80;99.90
5172;DHT22;2605;49.770;9.868;2022-07-29T12:40:48;28.90;99.90
5172;DHT22;2605;49.770;9.868;2022-07-29T12:43:16;28.90;99.90
5172;DHT22;2605;49.770;9.868;2022-07-29T12:45:45;28.90;99.90
5172;DHT22;2605;49.770;9.868;2022-07-29T12:48:10;28.70;99.90
5172;DHT22;2605;49.770;9.868;2022-07-29T12:50:51;28.20;99.90
5172;DHT22;2605;49.770;9.868;2022-07-29T12:53:18;27.80;99.90
5172;DHT22;2605;49.770;9.868;2022-07-29T12:55:47;27.50;99.90
5172;DHT22;2605;49.770;9.868;2022-07-29T13:01:05;26.90;99.90
5172;DHT22;2605;49.770;9.868;2022-07-29T13:03:46;26.60;99.90
5172;DHT22;2605;49.770;9.868;2022-07-29T13:06:57;26.30;99.90
5172;DHT22;2605;49.770;9.868;2022-07-29T13:09:23;26.00;99.90
5172;DHT22;2605;49.770;9.868;2022-07-29T13:11:52;25.80;99.90
5172;DHT22;2605;49.770;9.868;2022-07-29T13:14:31;25.70;99.90
5172;DHT22;2605;49.770;9.868;2022-07-29T13:17:04;25.50;99.90
5172;DHT22;2605;49.770;9.868;2022-07-29T13:19:48;25.30;99.90
5172;DHT22;2605;49.770;9.868;2022-07-29T13:22:16;24.90;99.90
5172;DHT22;2605;49.770;9.868;2022-07-29T13:24:53;24.50;99.90
5172;DHT22;2605;49.770;9.868;2022-07-29T13:27:21;24.10;99.90
5172;DHT22;2605;49.770;9.868;2022-07-29T13:29:47;23.90;99.90
5172;DHT22;2605;49.770;9.868;2022-07-29T13:32:14;23.70;99.90
5172;DHT22;2605;49.770;9.868;2022-07-29T13:34:39;23.60;99.90
5172;DHT22;2605;49.770;9.868;2022-07-29T13:37:05;23.50;99.90
5172;DHT22;2605;49.770;9.868;2022-07-29T13:39:31;23.40;99.90
5172;DHT22;2605;49.770;9.868;2022-07-29T13:41:57;23.30;99.90
5172;DHT22;2605;49.770;9.868;2022-07-29T13:44:22;23.20;99.90
5172;DHT22;2605;49.770;9.868;2022-07-29T13:46:47;23.30;99.90
5172;DHT22;2605;49.770;9.868;2022-07-29T13:49:13;23.30;99.90
5172;DHT22;2605;49.770;9.868;2022-07-29T13:51:38;23.10;99.90
5172;DHT22;2605;49.770;9.868;2022-07-29T13:54:04;22.70;99.90
5172;DHT22;2605;49.770;9.868;2022-07-29T13:56:30;22.60;99.90
5172;DHT22;2605;49.770;9.868;2022-07-29T13:58:56;22.10;99.90
5172;DHT22;2605;49.770;9.868;2022-07-29T14:01:22;21.70;99.90
5172;DHT22;2605;49.770;9.868;2022-07-29T14:03:48;21.40;99.90
5172;DHT22;2605;49.770;9.868;2022-07-29T14:06:14;21.30;99.90
5172;DHT22;2605;49.770;9.868;2022-07-29T14:08:39;21.40;99.90
5172;DHT22;2605;49.770;9.868;2022-07-29T14:11:05;21.50;99.90
5172;DHT22;2605;49.770;9.868;2022-07-29T14:13:31;21.50;99.90
5172;DHT22;2605;49.770;9.868;2022-07-29T14:15:56;21.50;99.90
5172;DHT22;2605;49.770;9.868;2022-07-29T14:18:22;21.50;99.90
5172;DHT22;2605;49.770;9.868;2022-07-29T14:20:48;21.50;99.90
5172;DHT22;2605;49.770;9.868;2022-07-29T14:23:13;21.60;99.90
5172;DHT22;2605;49.770;9.868;2022-07-29T14:25:39;21.60;99.90
5172;DHT22;2605;49.770;9.868;2022-07-29T14:28:04;21.50;99.90
5172;DHT22;2605;49.770;9.868;2022-07-29T14:30:30;21.70;99.90
5172;DHT22;2605;49.770;9.868;2022-07-29T14:32:55;21.70;99.90
5172;DHT22;2605;49.770;9.868;2022-07-29T14:35:21;21.70;99.90
5172;DHT22;2605;49.770;9.868;2022-07-29T14:37:46;21.80;99.90
5172;DHT22;2605;49.770;9.868;2022-07-29T14:40:12;21.80;99.90
5172;DHT22;2605;49.770;9.868;2022-07-29T14:42:38;21.80;99.90
5172;DHT22;2605;49.770;9.868;2022-07-29T14:45:05;21.70;99.90
5172;DHT22;2605;49.770;9.868;2022-07-29T14:47:31;21.60;99.90
5172;DHT22;2605;49.770;9.868;2022-07-29T14:49:57;21.50;99.90
5172;DHT22;2605;49.770;9.868;2022-07-29T14:52:22;21.50;99.90
5172;DHT22;2605;49.770;9.868;2022-07-29T14:54:48;21.40;99.90
5172;DHT22;2605;49.770;9.868;2022-07-29T14:57:13;21.40;99.90
5172;DHT22;2605;49.770;9.868;2022-07-29T14:59:39;21.20;99.90
5172;DHT22;2605;49.770;9.868;2022-07-29T15:02:04;21.10;99.90
5172;DHT22;2605;49.770;9.868;2022-07-29T15:04:30;21.20;99.90
5172;DHT22;2605;49.770;9.868;2022-07-29T15:06:56;21.00;99.90
5172;DHT22;2605;49.770;9.868;2022-07-29T15:09:21;20.80;99.90
5172;DHT22;2605;49.770;9.868;2022-07-29T15:11:47;20.70;99.90
5172;DHT22;2605;49.770;9.868;2022-07-29T15:14:12;20.60;99.90
5172;DHT22;2605;49.770;9.868;2022-07-29T15:16:38;20.30;99.90
5172;DHT22;2605;49.770;9.868;2022-07-29T15:19:05;20.10;99.90
5172;DHT22;2605;49.770;9.868;2022-07-29T15:21:30;19.90;99.90
5172;DHT22;2605;49.770;9.868;2022-07-29T15:23:56;19.80;99.90
5172;DHT22;2605;49.770;9.868;2022-07-29T15:26:21;19.70;99.90
5172;DHT22;2605;49.770;9.868;2022-07-29T15:28:47;19.40;99.90
5172;DHT22;2605;49.770;9.868;2022-07-29T15:31:13;19.20;99.90
5172;DHT22;2605;49.770;9.868;2022-07-29T15:33:39;19.00;99.90
5172;DHT22;2605;49.770;9.868;2022-07-29T15:36:05;18.80;99.90
5172;DHT22;2605;49.770;9.868;2022-07-29T15:38:30;18.70;99.90
5172;DHT22;2605;49.770;9.868;2022-07-29T15:40:56;18.70;99.90
5172;DHT22;2605;49.770;9.868;2022-07-29T15:43:22;18.70;99.90
5172;DHT22;2605;49.770;9.868;2022-07-29T15:45:48;18.70;99.90
5172;DHT22;2605;49.770;9.868;2022-07-29T15:48:32;18.70;99.90
5172;DHT22;2605;49.770;9.868;2022-07-29T15:50:59;18.60;99.90
5172;DHT22;2605;49.770;9.868;2022-07-29T15:53:25;18.70;99.90
5172;DHT22;2605;49.770;9.868;2022-07-29T15:55:51;18.80;99.90
5172;DHT22;2605;49.770;9.868;2022-07-29T15:58:16;18.90;99.90
5172;DHT22;2605;49.770;9.868;2022-07-29T16:00:42;18.90;99.90
5172;DHT22;2605;49.770;9.868;2022-07-29T16:03:07;18.80;99.90
5172;DHT22;2605;49.770;9.868;2022-07-29T16:05:33;18.70;99.90
5172;DHT22;2605;49.770;9.868;2022-07-29T16:07:59;18.60;99.90
5172;DHT22;2605;49.770;9.868;2022-07-29T16:10:25;18.60;99.90
5172;DHT22;2605;49.770;9.868;2022-07-29T16:12:50;18.70;99.90
5172;DHT22;2605;49.770;9.868;2022-07-29T16:15:16;18.70;99.90
5172;DHT22;2605;49.770;9.868;2022-07-29T16:17:41;18.60;99.90
5172;DHT22;2605;49.770;9.868;2022-07-29T16:20:07;18.60;99.90
5172;DHT22;2605;49.770;9.868;2022-07-29T16:22:33;18.60;99.90
5172;DHT22;2605;49.770;9.868;2022-07-29T16:24:58;18.60;99.90
5172;DHT22;2605;49.770;9.868;2022-07-29T16:27:24;18.40;99.90
5172;DHT22;2605;49.770;9.868;2022-07-29T16:29:53;18.30;99.90
5172;DHT22;2605;49.770;9.868;2022-07-29T16:32:18;18.20;99.90
5172;DHT22;2605;49.770;9.868;2022-07-29T16:34:44;18.10;99.90
5172;DHT22;2605;49.770;9.868;2022-07-29T16:37:09;18.10;99.90